Time;durP1;ratioP1;P1;durP2;ratioP2;P2;SDS_P1;SDS_P2;PMS_P1;PMS_P2;Temp;Humidity;BMP_temperature;BMP_pressure;BME280_temperature;BME280_humidity;BME280_pressure;Samples;Min_cycle;Max_cycle;Signal;HPM_P1;HPM_P2
2024/02/11 08:11:00;;;;;;;12.88;5.07;;;;;;;4.10;100.00;94344.94;2080987;27;20544;-65
2024/02/11 08:12:02;;;;;;;9.30;3.85;;;;;;;4.19;100.00;94365.09;2081038;28;20199;-65
2024/02/11 08:22:45;;;;;;;11.00;5.57;;;;;;;4.47;100.00;94384.22;2091722;27;20911;-63
2024/02/11 08:26:07;;;;;;;6.90;4.05;;;;;;;4.54;100.00;94372.59;2108138;27;20576;-61
2024/02/11 08:27:09;;;;;;;7.80;4.70;;;;;;;4.68;100.00;94371.81;2104090;28;20191;-61
2024/02/11 08:28:10;;;;;;;7.65;4.20;;;;;;;4.95;100.00;94383.22;2103512;28;20190;-62
2024/02/11 08:37:00;;;;;;;10.88;5.25;;;;;;;4.79;100.00;94391.88;2083728;28;20633;-64
2024/02/11 08:39:18;;;;;;;12.27;3.90;;;;;;;4.84;100.00;94376.13;2075751;28;20582;-63
2024/02/11 08:40:20;;;;;;;9.68;4.70;;;;;;;5.19;100.00;94402.50;2074252;28;20197;-64
2024/02/11 08:41:21;;;;;;;10.32;3.78;;;;;;;5.39;100.00;94393.53;2075483;28;20202;-64
2024/02/11 08:42:23;;;;;;;7.72;4.00;;;;;;;5.50;99.23;94392.88;2074102;28;20671;-64
2024/02/11 08:43:25;;;;;;;7.95;4.15;;;;;;;5.50;98.84;94395.47;2070646;28;20240;-64
2024/02/11 08:44:27;;;;;;;8.88;4.50;;;;;;;5.52;98.24;94401.41;2071522;28;20245;-64
2024/02/11 08:45:28;;;;;;;35.45;19.40;;;;;;;5.55;98.31;94397.81;2071747;28;20239;-65
2024/02/11 08:46:30;;;;;;;25.00;12.65;;;;;;;5.65;98.29;94398.06;2071373;28;20205;-69
2024/02/11 08:47:31;;;;;;;13.98;7.28;;;;;;;5.82;97.64;94399.63;2071367;28;20247;-64
2024/02/11 08:48:33;;;;;;;24.23;5.05;;;;;;;6.03;96.25;94405.25;2072958;28;20202;-69
2024/02/11 08:49:35;;;;;;;7.60;3.63;;;;;;;5.97;95.94;94395.25;2073606;28;20265;-64
2024/02/11 08:50:38;;;;;;;9.18;4.80;;;;;;;6.02;95.44;94406.19;2073942;28;20856;-64
2024/02/11 08:51:40;;;;;;;11.60;4.22;;;;;;;6.11;96.60;94407.38;2071620;28;20222;-64
2024/02/11 08:52:43;;;;;;;11.73;3.97;;;;;;;5.96;96.82;94391.00;2073724;28;20198;-65
2024/02/11 08:53:44;;;;;;;6.78;3.58;;;;;;;6.01;97.84;94407.94;2075349;28;20650;-64
2024/02/11 08:54:47;;;;;;;8.40;4.28;;;;;;;5.92;97.39;94405.91;2073833;28;20783;-64
2024/02/11 08:55:48;;;;;;;9.70;4.10;;;;;;;5.83;97.30;94409.06;2073149;28;20189;-65
2024/02/11 08:56:50;;;;;;;9.50;3.92;;;;;;;5.73;97.27;94412.19;2070344;28;20206;-64
2024/02/11 09:03:15;;;;;;;7.82;3.78;;;;;;;5.27;99.77;94409.81;2107168;27;20557;-66
2024/02/11 09:08:27;;;;;;;10.43;3.90;;;;;;;5.07;100.00;94398.88;2095061;27;20573;-66
2024/02/11 09:43:39;;;;;;;5.90;3.75;;;;;;;5.29;100.00;94433.00;2080795;28;20571;-66
2024/02/11 09:47:08;;;;;;;13.05;3.80;;;;;;;5.44;100.00;94441.63;2099403;27;20569;-66
2024/02/11 09:50:30;;;;;;;10.48;4.13;;;;;;;5.44;100.00;94444.22;2082257;28;20569;-64
2024/02/11 09:51:32;;;;;;;5.20;3.38;;;;;;;5.45;99.62;94428.59;2078617;28;20232;-64
2024/02/11 09:54:35;;;;;;;9.55;3.72;;;;;;;5.49;99.32;94429.22;2102215;27;20555;-66
2024/02/11 09:55:39;;;;;;;9.30;3.58;;;;;;;5.64;99.83;94446.44;2100719;28;20597;-66
2024/02/11 09:58:52;;;;;;;10.90;3.55;;;;;;;5.65;98.69;94450.69;2101285;27;20562;-66
2024/02/11 09:59:54;;;;;;;6.43;3.88;;;;;;;5.68;98.43;94452.25;2089605;28;20230;-66
2024/02/11 10:03:27;;;;;;;6.10;3.10;;;;;;;5.72;97.54;94454.56;2100195;27;20560;-64
2024/02/11 10:06:40;;;;;;;4.85;2.63;;;;;;;5.80;97.65;94456.72;2083683;28;21143;-67
2024/02/11 10:07:44;;;;;;;5.43;3.33;;;;;;;5.83;97.78;94453.09;2081443;28;20193;-65
2024/02/11 10:08:46;;;;;;;6.68;3.88;;;;;;;5.85;97.40;94444.31;2080499;28;20217;-66
2024/02/11 10:09:48;;;;;;;7.00;3.20;;;;;;;5.98;96.30;94457.38;2074387;28;20530;-66
2024/02/11 10:10:51;;;;;;;8.13;3.45;;;;;;;6.05;96.16;94450.03;2074186;28;20199;-65
2024/02/11 10:11:54;;;;;;;11.10;3.05;;;;;;;6.16;96.14;94454.56;2076166;28;20233;-65
2024/02/11 10:12:59;;;;;;;7.07;3.80;;;;;;;6.17;95.01;94461.41;2074017;28;20290;-64
2024/02/11 10:14:02;;;;;;;6.32;2.92;;;;;;;6.10;94.42;94454.94;2073017;28;20287;-65
2024/02/11 10:16:39;;;;;;;9.55;3.08;;;;;;;6.10;94.74;94449.75;2082975;28;21104;-65
2024/02/11 10:17:42;;;;;;;5.40;3.13;;;;;;;6.13;94.21;94472.88;2080163;28;20358;-65
2024/02/11 10:18:44;;;;;;;9.65;3.17;;;;;;;6.13;94.42;94457.34;2078056;28;20616;-65
2024/02/11 10:19:46;;;;;;;6.60;3.40;;;;;;;6.31;95.23;94476.94;2070229;28;20209;-65
2024/02/11 10:20:48;;;;;;;8.20;3.67;;;;;;;6.37;95.26;94471.38;2070216;28;20234;-65
2024/02/11 10:21:50;;;;;;;8.07;3.65;;;;;;;6.43;95.37;94471.91;2072247;28;20710;-66
2024/02/11 10:22:52;;;;;;;9.70;3.70;;;;;;;6.48;94.52;94481.06;2072075;28;20603;-65
2024/02/11 10:25:04;;;;;;;6.97;3.40;;;;;;;6.43;93.74;94471.91;2100044;27;21026;-65
2024/02/11 10:41:37;;;;;;;5.80;3.25;;;;;;;5.88;95.41;94488.16;2081628;27;20557;-67
2024/02/11 10:46:38;;;;;;;9.57;2.75;;;;;;;6.03;95.07;94503.69;2100250;27;20553;-66
2024/02/11 10:51:42;;;;;;;7.97;2.42;;;;;;;6.13;95.37;94507.44;2088760;28;20563;-64
2024/02/11 10:56:30;;;;;;;6.30;3.25;;;;;;;6.18;94.98;94514.91;2107288;27;20570;-65
2024/02/11 10:57:44;;;;;;;10.38;3.40;;;;;;;6.15;94.87;94500.38;2110871;28;20202;-66
2024/02/11 10:58:52;;;;;;;8.23;3.35;;;;;;;6.33;94.74;94515.72;2107055;28;20194;-66
2024/02/11 11:00:01;;;;;;;8.07;2.50;;;;;;;6.56;94.39;94514.28;2103243;28;20214;-68
2024/02/11 11:01:06;;;;;;;6.50;2.88;;;;;;;6.67;93.48;94517.03;2102300;28;20602;-66
2024/02/11 11:02:11;;;;;;;7.07;2.75;;;;;;;6.72;92.99;94511.56;2102356;28;20214;-66
2024/02/11 11:03:16;;;;;;;3.50;2.35;;;;;;;6.97;92.04;94516.03;2103329;28;20203;-66
2024/02/11 11:04:22;;;;;;;4.97;2.28;;;;;;;7.00;90.74;94500.25;2104581;28;20219;-66
2024/02/11 11:05:30;;;;;;;5.20;2.38;;;;;;;7.16;90.02;94512.22;2104348;28;20248;-66
2024/02/11 11:06:33;;;;;;;3.92;2.05;;;;;;;7.26;89.48;94508.13;2102590;28;20198;-66
2024/02/11 11:07:37;;;;;;;5.43;2.78;;;;;;;7.30;89.16;94504.38;2102695;28;20195;-66
2024/02/11 11:08:42;;;;;;;11.10;3.03;;;;;;;7.59;88.89;94513.75;2100980;28;20294;-66
2024/02/11 11:09:45;;;;;;;5.38;2.40;;;;;;;7.50;88.03;94504.81;2102557;28;20543;-66
2024/02/11 11:10:47;;;;;;;5.97;2.55;;;;;;;7.69;88.62;94512.19;2102988;28;20217;-67
2024/02/11 11:11:49;;;;;;;4.20;2.15;;;;;;;7.73;88.08;94521.44;2100808;28;20202;-66
2024/02/11 11:12:55;;;;;;;3.72;2.25;;;;;;;7.66;87.02;94518.44;2099130;28;20203;-66
2024/02/11 11:14:06;;;;;;;5.55;1.80;;;;;;;7.61;85.99;94525.72;2101387;28;20223;-66
2024/02/11 11:15:08;;;;;;;2.63;1.60;;;;;;;7.58;86.10;94519.88;2102667;28;20229;-66
2024/02/11 11:16:11;;;;;;;3.30;1.85;;;;;;;7.58;86.44;94512.94;2103150;28;20302;-66
2024/02/11 11:17:19;;;;;;;3.45;1.65;;;;;;;7.52;86.02;94523.72;2102558;28;20199;-66
2024/02/11 11:18:23;;;;;;;5.43;1.80;;;;;;;7.50;86.02;94517.78;2102243;28;20191;-66
2024/02/11 11:19:24;;;;;;;4.18;2.00;;;;;;;7.46;86.35;94518.94;2102280;28;20306;-66
2024/02/11 11:20:27;;;;;;;3.30;2.42;;;;;;;7.48;87.08;94514.50;2103278;28;20646;-66
2024/02/11 11:21:29;;;;;;;4.20;1.63;;;;;;;7.37;85.97;94512.59;2102582;28;20199;-66
2024/02/11 11:22:33;;;;;;;5.30;1.85;;;;;;;7.42;85.81;94512.28;2102721;28;20195;-66
2024/02/11 11:23:37;;;;;;;3.67;1.65;;;;;;;7.50;85.77;94507.41;2102115;28;20552;-66
2024/02/11 11:24:39;;;;;;;3.65;1.65;;;;;;;7.63;86.67;94512.59;2100851;28;20206;-66
2024/02/11 11:25:42;;;;;;;7.50;2.22;;;;;;;7.69;86.08;94504.41;2103295;28;20191;-66
2024/02/11 11:26:51;;;;;;;8.27;1.70;;;;;;;7.54;84.16;94492.47;2103167;28;20229;-66
2024/02/11 11:28:09;;;;;;;8.32;2.10;;;;;;;7.76;83.77;94497.88;2102838;28;20203;-66
2024/02/11 11:29:14;;;;;;;7.80;2.70;;;;;;;7.95;83.38;94505.25;2102250;28;20215;-66
2024/02/11 11:30:17;;;;;;;4.43;1.75;;;;;;;8.04;83.40;94502.94;2103138;28;20293;-66
2024/02/11 11:31:22;;;;;;;3.95;1.92;;;;;;;8.20;82.86;94505.31;2102325;28;20223;-66
2024/02/11 11:32:24;;;;;;;4.60;1.90;;;;;;;9.70;77.26;94503.25;2102599;28;20643;-66
2024/02/11 11:33:27;;;;;;;6.60;2.35;;;;;;;10.13;74.33;94504.34;2102452;28;20195;-66
2024/02/11 11:34:34;;;;;;;6.82;1.85;;;;;;;9.46;75.26;94485.09;2101499;28;20219;-66
2024/02/11 11:35:35;;;;;;;3.20;1.60;;;;;;;9.04;77.91;94488.13;2102482;28;20204;-66
2024/02/11 11:36:37;;;;;;;3.72;1.85;;;;;;;8.78;78.70;94492.63;2102321;28;20967;-66
2024/02/11 11:37:39;;;;;;;2.88;1.50;;;;;;;8.42;79.29;94499.47;2102951;28;20191;-66
2024/02/11 11:38:41;;;;;;;4.15;1.77;;;;;;;8.89;78.30;94494.44;2102035;28;20560;-66
2024/02/11 11:39:44;;;;;;;2.00;1.15;;;;;;;9.34;77.64;94502.44;2101500;28;20203;-66
2024/02/11 11:40:50;;;;;;;4.78;1.65;;;;;;;9.05;77.84;94496.75;2103230;28;20865;-66
2024/02/11 11:41:52;;;;;;;6.13;1.73;;;;;;;8.57;78.95;94484.56;2103015;28;20225;-66
2024/02/11 11:42:54;;;;;;;3.30;1.60;;;;;;;8.34;79.41;94500.84;2102838;28;20237;-66
2024/02/11 11:44:02;;;;;;;4.40;1.45;;;;;;;8.23;79.97;94489.50;2102281;28;20275;-66
2024/02/11 11:45:08;;;;;;;3.13;1.45;;;;;;;8.13;80.76;94504.94;2102413;28;20210;-66
2024/02/11 11:46:10;;;;;;;3.25;1.00;;;;;;;7.96;78.84;94506.06;2103779;28;20226;-66
2024/02/11 11:47:13;;;;;;;5.15;1.63;;;;;;;7.94;79.56;94489.75;2105798;28;20195;-66
2024/02/11 11:48:16;;;;;;;4.10;1.30;;;;;;;8.22;79.86;94501.69;2103666;28;20191;-66
2024/02/11 11:49:18;;;;;;;3.65;1.00;;;;;;;8.22;80.80;94503.47;2096593;28;20258;-66
2024/02/11 11:50:20;;;;;;;3.75;1.40;;;;;;;8.17;81.05;94495.97;2100533;28;20200;-66
2024/02/11 11:51:23;;;;;;;2.67;0.90;;;;;;;8.27;81.86;94503.97;2102071;28;20211;-66
2024/02/11 11:52:26;;;;;;;4.95;1.40;;;;;;;8.22;81.02;94500.88;2101946;28;20191;-66
2024/02/11 11:53:29;;;;;;;2.58;1.17;;;;;;;8.20;81.33;94489.72;2102086;28;20697;-66
2024/02/11 11:54:31;;;;;;;4.50;1.42;;;;;;;8.40;80.72;94504.75;2108833;28;20214;-66
2024/02/11 11:55:33;;;;;;;3.35;1.20;;;;;;;8.33;80.14;94488.75;2102400;28;20199;-66
2024/02/11 11:56:34;;;;;;;3.80;1.20;;;;;;;8.71;77.69;94497.44;2102434;28;20207;-67
2024/02/11 11:57:36;;;;;;;5.75;1.40;;;;;;;9.06;76.92;94498.44;2103021;28;20187;-66
2024/02/11 11:58:37;;;;;;;6.50;1.42;;;;;;;9.59;75.63;94496.22;2102246;28;20322;-66
2024/02/11 11:59:39;;;;;;;1.75;0.80;;;;;;;9.68;73.40;94483.47;2093323;28;20223;-66
2024/02/11 12:00:41;;;;;;;8.07;1.02;;;;;;;10.55;72.34;94491.56;2110449;28;20263;-66
2024/02/11 12:01:43;;;;;;;2.90;1.00;;;;;;;10.74;70.63;94485.72;2102315;28;20281;-66
2024/02/11 12:02:45;;;;;;;3.17;1.25;;;;;;;11.30;69.83;94491.72;2102117;28;20612;-66
2024/02/11 12:03:47;;;;;;;4.25;1.05;;;;;;;11.18;69.73;94495.31;2101455;28;20662;-66
2024/02/11 12:04:49;;;;;;;6.57;1.52;;;;;;;11.67;69.67;94495.66;2102310;28;20248;-66
2024/02/11 12:05:51;;;;;;;4.70;1.10;;;;;;;11.54;68.94;94498.47;2102911;28;20767;-67
2024/02/11 12:06:53;;;;;;;2.85;1.20;;;;;;;11.60;69.53;94492.75;2103064;28;20249;-66
2024/02/11 12:07:55;;;;;;;3.63;0.98;;;;;;;11.58;70.60;94489.44;2096619;28;20808;-66
2024/02/11 12:08:56;;;;;;;5.20;1.30;;;;;;;11.07;72.23;94491.81;2096847;28;20201;-66
2024/02/11 12:09:58;;;;;;;4.13;1.33;;;;;;;11.09;71.57;94491.69;2097291;28;20192;-67
2024/02/11 12:11:06;;;;;;;6.10;1.20;;;;;;;10.37;71.40;94479.97;2096864;28;20212;-66
2024/02/11 12:12:08;;;;;;;8.70;1.58;;;;;;;10.14;73.36;94474.72;2096163;28;20198;-67
2024/02/11 12:13:14;;;;;;;4.10;1.25;;;;;;;9.82;73.23;94485.84;2097188;28;20732;-66
2024/02/11 12:14:18;;;;;;;2.97;1.00;;;;;;;9.46;72.57;94503.31;2095317;28;20226;-66
2024/02/11 12:15:20;;;;;;;3.17;0.98;;;;;;;9.26;72.61;94492.59;2104614;28;20187;-66
2024/02/11 12:16:23;;;;;;;2.17;1.13;;;;;;;9.11;73.75;94504.94;2104820;28;20195;-66
2024/02/11 12:17:25;;;;;;;3.33;1.20;;;;;;;9.00;75.01;94494.50;2097173;28;20265;-66
2024/02/11 12:18:27;;;;;;;9.13;1.17;;;;;;;8.87;74.76;94504.97;2096415;28;20196;-66
2024/02/11 12:19:38;;;;;;;2.53;0.90;;;;;;;8.89;74.43;94489.22;2096214;28;20219;-66
2024/02/11 12:20:43;;;;;;;2.88;1.23;;;;;;;9.07;74.29;94500.91;2096550;28;20238;-66
2024/02/11 12:21:44;;;;;;;2.80;1.25;;;;;;;8.91;74.35;94500.38;2093766;28;20212;-66
2024/02/11 12:22:46;;;;;;;2.88;1.13;;;;;;;8.70;75.71;94494.91;2093217;28;20208;-66
2024/02/11 12:23:47;;;;;;;4.55;1.52;;;;;;;8.88;76.23;94493.63;2096503;28;20295;-65
2024/02/11 12:24:49;;;;;;;3.45;1.10;;;;;;;8.76;75.54;94503.16;2097248;28;20246;-66
2024/02/11 12:25:55;;;;;;;2.67;1.00;;;;;;;8.61;75.65;94499.84;2096429;28;20206;-66
2024/02/11 12:26:58;;;;;;;3.38;1.30;;;;;;;8.50;76.21;94498.00;2088977;28;20193;-66
2024/02/11 12:27:59;;;;;;;2.97;0.98;;;;;;;8.46;77.56;94490.53;2096587;28;20291;-66
2024/02/11 12:29:02;;;;;;;2.95;1.25;;;;;;;8.33;77.38;94501.78;2096403;28;20230;-66
2024/02/11 12:30:04;;;;;;;3.85;1.13;;;;;;;8.21;76.75;94496.59;2097212;28;20890;-66
2024/02/11 12:31:12;;;;;;;3.47;1.17;;;;;;;8.22;77.88;94501.69;2097524;28;20868;-66
2024/02/11 12:32:17;;;;;;;5.78;1.27;;;;;;;8.22;77.88;94498.25;2097035;28;20221;-66
2024/02/11 12:33:19;;;;;;;2.10;1.20;;;;;;;8.22;78.26;94495.66;2097437;28;20230;-66
2024/02/11 12:34:24;;;;;;;4.90;1.20;;;;;;;8.30;77.32;94491.59;2096616;28;20626;-65
2024/02/11 12:35:30;;;;;;;5.75;1.27;;;;;;;8.26;76.90;94487.53;2092846;28;20204;-66
2024/02/11 12:36:32;;;;;;;6.90;1.25;;;;;;;8.36;77.05;94500.72;2091843;28;20279;-66
2024/02/11 12:37:35;;;;;;;2.95;1.10;;;;;;;8.44;76.96;94489.78;2097309;28;20559;-66
2024/02/11 12:38:44;;;;;;;2.85;1.13;;;;;;;8.54;77.44;94500.41;2096970;28;20693;-66
2024/02/11 12:39:46;;;;;;;2.97;1.20;;;;;;;8.47;76.93;94487.81;2096984;28;20307;-66
2024/02/11 12:40:47;;;;;;;1.92;0.80;;;;;;;8.41;77.23;94480.41;2097367;28;20727;-66
2024/02/11 12:41:49;;;;;;;7.20;1.20;;;;;;;8.43;77.58;94490.72;2097273;28;20711;-66
2024/02/11 12:42:58;;;;;;;8.00;1.70;;;;;;;8.49;77.17;94506.78;2096021;28;20204;-66
2024/02/11 12:44:03;;;;;;;4.20;1.60;;;;;;;8.39;76.17;94492.69;2087972;28;20228;-65
2024/02/11 12:45:05;;;;;;;9.57;1.63;;;;;;;8.43;76.08;94499.38;2088798;28;20204;-66
2024/02/11 12:46:10;;;;;;;3.03;1.23;;;;;;;8.31;75.88;94490.63;2096530;28;20244;-66
2024/02/11 12:47:13;;;;;;;2.78;0.90;;;;;;;8.29;76.49;94491.69;2095328;28;20183;-66
2024/02/11 12:48:15;;;;;;;3.60;1.30;;;;;;;8.27;76.23;94489.19;2095985;28;20233;-66
2024/02/11 12:49:17;;;;;;;3.45;1.25;;;;;;;8.26;75.99;94495.31;2096316;28;20231;-68
2024/02/11 12:50:22;;;;;;;5.00;1.10;;;;;;;8.17;76.18;94493.38;2097116;28;20587;-66
2024/02/11 12:51:24;;;;;;;9.80;1.40;;;;;;;8.04;77.20;94488.19;2095910;28;20204;-66
2024/02/11 12:52:26;;;;;;;6.07;1.30;;;;;;;8.09;77.38;94493.09;2095431;28;20199;-66
2024/02/11 12:53:27;;;;;;;6.75;1.33;;;;;;;8.08;77.55;94488.81;2096636;28;20199;-66
2024/02/11 12:54:29;;;;;;;5.95;1.65;;;;;;;8.03;77.15;94494.31;2096003;28;20215;-66
2024/02/11 12:55:30;;;;;;;6.25;1.08;;;;;;;7.93;77.34;94485.50;2088644;28;20196;-66
2024/02/11 12:56:32;;;;;;;2.08;1.10;;;;;;;7.94;76.83;94495.78;2096307;28;20195;-66
2024/02/11 12:57:33;;;;;;;3.15;1.20;;;;;;;7.91;76.07;94492.56;2097009;28;20199;-66
2024/02/11 12:58:35;;;;;;;5.40;1.13;;;;;;;7.91;77.10;94497.75;2096437;28;20670;-66
2024/02/11 12:59:36;;;;;;;2.60;1.50;;;;;;;7.99;77.25;94509.28;2095825;28;20419;-66
2024/02/11 13:00:39;;;;;;;4.40;1.13;;;;;;;8.25;76.64;94508.44;2097057;28;20227;-66
2024/02/11 13:01:40;;;;;;;5.20;1.20;;;;;;;8.60;76.29;94506.00;2097218;28;20669;-66
2024/02/11 13:02:42;;;;;;;4.43;1.20;;;;;;;8.81;76.34;94500.19;2096624;28;20199;-66
2024/02/11 13:03:46;;;;;;;4.25;1.38;;;;;;;8.81;75.88;94498.44;2095426;28;20204;-66
2024/02/11 13:04:48;;;;;;;4.07;1.80;;;;;;;8.77;75.96;94498.75;2098228;28;21125;-66
2024/02/11 13:05:50;;;;;;;14.32;2.10;;;;;;;8.82;76.30;94487.09;2099455;28;20227;-66
2024/02/11 13:06:51;;;;;;;4.80;1.63;;;;;;;8.92;75.45;94489.03;2096449;28;20344;-66
2024/02/11 13:07:53;;;;;;;7.97;1.70;;;;;;;8.78;75.74;94488.22;2096329;28;20594;-66
2024/02/11 13:08:55;;;;;;;5.80;1.48;;;;;;;8.79;76.41;94492.50;2094307;28;20294;-66
2024/02/11 13:09:57;;;;;;;5.00;1.30;;;;;;;8.79;75.65;94492.50;2095543;28;20774;-66
2024/02/11 13:10:59;;;;;;;2.22;1.00;;;;;;;8.80;76.15;94501.97;2096792;28;20242;-66
2024/02/11 13:12:01;;;;;;;5.22;1.40;;;;;;;8.76;75.18;94494.50;2096814;28;20553;-66
2024/02/11 13:13:03;;;;;;;5.78;2.08;;;;;;;8.84;75.00;94492.19;2095464;28;20195;-66
2024/02/11 13:14:04;;;;;;;5.97;2.38;;;;;;;8.96;76.18;94506.91;2095739;28;20243;-66
2024/02/11 13:15:10;;;;;;;2.97;1.17;;;;;;;9.71;74.30;94488.44;2096035;28;20287;-67
2024/02/11 13:16:12;;;;;;;2.40;0.90;;;;;;;10.07;70.99;94491.81;2096857;28;20199;-67
2024/02/11 13:17:13;;;;;;;3.28;1.33;;;;;;;10.15;70.14;94489.44;2096046;28;20310;-67
2024/02/11 13:18:15;;;;;;;6.30;1.25;;;;;;;9.96;71.58;94495.22;2087731;28;20200;-67
2024/02/11 13:19:17;;;;;;;2.75;1.00;;;;;;;10.50;71.79;94490.25;2093852;28;20215;-67
2024/02/11 13:20:21;;;;;;;5.07;1.40;;;;;;;10.23;71.40;94471.44;2095200;28;20192;-67
2024/02/11 13:21:22;;;;;;;2.28;1.00;;;;;;;10.13;71.46;94486.09;2095988;28;20260;-67
2024/02/11 13:22:24;;;;;;;2.33;1.05;;;;;;;9.99;71.85;94484.56;2096389;28;20200;-67
2024/02/11 13:23:25;;;;;;;1.58;0.90;;;;;;;9.61;70.19;94493.50;2096905;28;20196;-67
2024/02/11 13:24:27;;;;;;;3.28;1.00;;;;;;;9.18;71.16;94484.53;2095934;28;20227;-67
2024/02/11 13:25:29;;;;;;;2.75;1.02;;;;;;;9.14;69.46;94496.09;2097922;28;20268;-67
2024/02/11 13:26:32;;;;;;;4.88;1.08;;;;;;;8.88;68.93;94487.59;2096167;28;20199;-67
2024/02/11 13:27:34;;;;;;;4.07;1.00;;;;;;;8.91;69.71;94489.97;2096016;28;20188;-67
2024/02/11 13:28:37;;;;;;;2.55;0.93;;;;;;;8.91;70.31;94489.97;2095954;28;20576;-67
2024/02/11 13:29:39;;;;;;;3.08;1.15;;;;;;;8.77;70.97;94470.13;2094694;28;20219;-66
2024/02/11 13:30:41;;;;;;;6.00;0.85;;;;;;;8.86;69.81;94494.66;2095924;28;20196;-66
2024/02/11 13:31:42;;;;;;;3.47;0.90;;;;;;;8.69;69.38;94496.69;2096842;28;20199;-66
2024/02/11 13:32:45;;;;;;;1.45;0.70;;;;;;;8.78;70.09;94498.63;2096082;28;20206;-66
2024/02/11 13:33:46;;;;;;;2.45;0.80;;;;;;;8.80;70.75;94486.34;2095060;28;20204;-66
2024/02/11 13:34:48;;;;;;;2.00;1.05;;;;;;;8.88;71.07;94498.00;2096626;28;20200;-66
2024/02/11 13:35:51;;;;;;;2.60;0.80;;;;;;;8.90;71.32;94499.56;2096832;28;20191;-66
2024/02/11 13:36:53;;;;;;;2.80;0.93;;;;;;;8.88;72.07;94498.00;2096575;28;20230;-66
2024/02/11 13:37:54;;;;;;;1.80;0.77;;;;;;;8.91;72.58;94498.63;2096775;28;20235;-66
2024/02/11 13:38:56;;;;;;;3.55;1.08;;;;;;;8.95;72.88;94505.25;2095465;28;20203;-66
2024/02/11 13:39:58;;;;;;;3.30;1.13;;;;;;;8.94;72.89;94505.38;2087845;28;20580;-66
2024/02/11 13:41:00;;;;;;;2.40;0.98;;;;;;;8.92;72.94;94504.63;2095163;28;20207;-66
2024/02/11 13:42:01;;;;;;;3.60;0.80;;;;;;;8.85;72.58;94504.25;2096940;28;20284;-66
2024/02/11 13:43:03;;;;;;;2.15;0.85;;;;;;;8.74;73.07;94499.81;2095700;28;20196;-66
2024/02/11 13:44:04;;;;;;;5.32;1.25;;;;;;;8.81;72.88;94495.84;2094826;28;20276;-67
2024/02/11 13:45:11;;;;;;;2.58;0.80;;;;;;;8.77;73.48;94493.56;2095788;28;20657;-67
2024/02/11 13:46:13;;;;;;;2.30;0.80;;;;;;;8.65;73.59;94492.66;2096568;28;20284;-67
2024/02/11 13:47:15;;;;;;;2.70;1.10;;;;;;;8.75;73.67;94503.25;2096385;28;20195;-67
2024/02/11 13:48:17;;;;;;;2.97;0.93;;;;;;;8.73;73.13;94494.72;2096657;28;20252;-67
2024/02/11 13:49:18;;;;;;;4.00;1.42;;;;;;;8.71;73.35;94514.81;2095737;28;20223;-67
2024/02/11 13:50:21;;;;;;;4.00;0.90;;;;;;;8.63;73.22;94495.38;2096629;28;20200;-67
2024/02/11 13:51:22;;;;;;;1.67;0.80;;;;;;;8.55;73.05;94505.50;2096617;28;20229;-67
2024/02/11 13:52:24;;;;;;;2.33;0.90;;;;;;;8.47;73.07;94487.00;2096343;28;20279;-67
2024/02/11 13:53:25;;;;;;;2.55;1.00;;;;;;;8.47;73.90;94502.63;2096485;28;20252;-67
2024/02/11 13:54:28;;;;;;;5.90;0.93;;;;;;;8.35;73.74;94491.25;2095709;28;20216;-67
2024/02/11 13:55:30;;;;;;;3.35;1.05;;;;;;;8.22;73.62;94500.88;2096179;28;20200;-67
2024/02/11 13:56:31;;;;;;;1.73;0.80;;;;;;;8.05;73.86;94505.47;2096696;28;20877;-66
2024/02/11 13:57:33;;;;;;;1.50;0.70;;;;;;;7.95;74.81;94502.66;2096453;28;20207;-66
2024/02/11 13:58:40;;;;;;;2.35;0.65;;;;;;;8.00;75.75;94516.16;2096574;28;20203;-66
2024/02/11 13:59:42;;;;;;;2.33;0.80;;;;;;;7.88;76.27;94509.19;2094899;28;20230;-66
2024/02/11 14:00:44;;;;;;;2.75;0.98;;;;;;;7.81;78.34;94510.56;2095819;28;20234;-66
2024/02/11 14:01:49;;;;;;;1.90;0.70;;;;;;;7.74;78.37;94512.72;2096552;28;20729;-66
2024/02/11 14:02:51;;;;;;;1.80;0.70;;;;;;;7.63;78.63;94520.41;2096579;28;20786;-65
2024/02/11 14:03:52;;;;;;;2.00;0.60;;;;;;;7.72;78.75;94514.63;2094493;28;20200;-65
2024/02/11 14:04:54;;;;;;;1.35;0.80;;;;;;;7.98;79.06;94515.41;2095985;28;20603;-66
2024/02/11 14:05:56;;;;;;;1.60;0.90;;;;;;;8.30;79.03;94520.19;2095890;28;20192;-65
2024/02/11 14:06:59;;;;;;;4.13;0.80;;;;;;;8.55;79.32;94515.06;2096525;28;20646;-66
2024/02/11 14:08:03;;;;;;;2.85;1.02;;;;;;;9.21;77.60;94523.34;2096366;28;20203;-66
2024/02/11 14:09:05;;;;;;;1.75;0.70;;;;;;;9.76;76.57;94523.66;2094852;28;20222;-66
2024/02/11 14:10:08;;;;;;;2.22;0.90;;;;;;;9.84;74.42;94522.22;2095273;28;20199;-66
2024/02/11 14:11:09;;;;;;;2.28;1.00;;;;;;;9.76;74.21;94514.97;2090328;28;20225;-66
2024/02/11 14:12:11;;;;;;;1.95;0.80;;;;;;;9.42;74.65;94523.56;2087467;28;20203;-66
2024/02/11 14:13:14;;;;;;;1.58;0.80;;;;;;;9.81;74.27;94525.91;2095783;28;20200;-65
2024/02/11 14:14:17;;;;;;;3.58;0.95;;;;;;;9.69;73.48;94512.03;2089584;28;20736;-65
2024/02/11 14:15:18;;;;;;;1.30;0.70;;;;;;;10.08;72.36;94520.38;2097026;28;20753;-65
2024/02/11 14:16:20;;;;;;;1.30;0.70;;;;;;;10.20;71.13;94521.19;2096103;28;20560;-65
2024/02/11 14:17:22;;;;;;;1.15;0.70;;;;;;;10.23;69.58;94528.81;2096249;28;20283;-65
2024/02/11 14:18:24;;;;;;;3.15;0.80;;;;;;;10.06;69.08;94524.88;2096741;28;20200;-65
2024/02/11 14:19:25;;;;;;;4.50;0.70;;;;;;;9.92;70.39;94518.09;2095673;28;20289;-65
2024/02/11 14:20:27;;;;;;;1.88;0.75;;;;;;;9.67;70.96;94515.69;2096175;28;20192;-65
2024/02/11 14:21:28;;;;;;;2.50;0.90;;;;;;;9.42;71.91;94525.31;2096257;28;20195;-65
2024/02/11 14:22:30;;;;;;;1.40;0.65;;;;;;;9.60;72.09;94530.97;2095646;28;20203;-65
2024/02/11 14:23:34;;;;;;;2.10;0.70;;;;;;;9.36;72.46;94517.94;2094161;28;20199;-65
2024/02/11 14:24:35;;;;;;;1.75;0.60;;;;;;;9.25;73.67;94535.19;2095583;28;20223;-65
2024/02/11 14:25:37;;;;;;;1.17;0.68;;;;;;;9.14;73.95;94535.16;2096291;28;20647;-65
2024/02/11 14:26:38;;;;;;;1.83;0.85;;;;;;;8.99;74.75;94535.31;2096223;28;20196;-65
2024/02/11 14:27:45;;;;;;;2.60;0.80;;;;;;;8.88;73.70;94514.44;2096053;28;20239;-65
2024/02/11 14:28:49;;;;;;;3.05;0.80;;;;;;;9.24;74.14;94538.78;2082936;28;20211;-65
2024/02/11 14:29:50;;;;;;;1.60;0.73;;;;;;;9.80;72.05;94519.88;2095774;28;20671;-65
2024/02/11 14:30:52;;;;;;;2.47;0.80;;;;;;;9.60;71.01;94537.00;2096035;28;20546;-65
2024/02/11 14:31:54;;;;;;;1.63;0.75;;;;;;;9.74;70.98;94532.53;2096202;28;20282;-65
2024/02/11 14:32:56;;;;;;;2.45;0.80;;;;;;;10.05;70.78;94532.81;2096159;28;20611;-65
2024/02/11 14:33:59;;;;;;;1.42;0.70;;;;;;;9.74;70.60;94538.56;2095106;28;20199;-65
2024/02/11 14:35:02;;;;;;;2.35;0.73;;;;;;;10.10;69.73;94535.91;2096044;28;20200;-65
2024/02/11 14:36:04;;;;;;;8.65;1.00;;;;;;;10.18;69.71;94538.72;2095431;28;20574;-65
2024/02/11 14:37:06;;;;;;;2.15;0.90;;;;;;;10.51;69.14;94537.09;2094653;28;20256;-65
2024/02/11 14:38:08;;;;;;;1.52;0.80;;;;;;;10.58;68.42;94537.47;2096097;28;20210;-65
2024/02/11 14:39:11;;;;;;;1.60;0.80;;;;;;;10.72;67.99;94537.22;2095325;28;20270;-65
2024/02/11 14:40:16;;;;;;;3.50;1.00;;;;;;;10.96;67.26;94538.84;2096035;28;20247;-65
2024/02/11 14:41:22;;;;;;;1.98;0.80;;;;;;;10.77;67.27;94526.41;2096261;28;20204;-65
2024/02/11 14:42:24;;;;;;;5.63;1.27;;;;;;;10.54;68.09;94538.66;2096039;28;20294;-65
2024/02/11 14:43:26;;;;;;;2.47;0.90;;;;;;;11.02;67.10;94532.28;2095516;28;20199;-65
2024/02/11 14:44:27;;;;;;;1.83;0.80;;;;;;;11.23;66.62;94533.16;2095461;28;20215;-65
2024/02/11 14:45:29;;;;;;;2.15;1.05;;;;;;;11.37;66.80;94539.91;2096279;28;20664;-65
2024/02/11 14:46:30;;;;;;;2.00;0.75;;;;;;;11.44;66.34;94541.06;2096206;28;20671;-65
2024/02/11 14:47:33;;;;;;;2.08;0.90;;;;;;;11.07;66.25;94538.81;2095557;28;20963;-64
2024/02/11 14:48:36;;;;;;;1.52;0.75;;;;;;;10.97;66.11;94535.28;2095557;28;20242;-64
2024/02/11 14:49:37;;;;;;;8.68;1.00;;;;;;;11.04;66.05;94539.03;2094984;28;20299;-64
2024/02/11 14:50:40;;;;;;;2.13;0.93;;;;;;;11.14;65.77;94536.53;2095851;28;20218;-64
2024/02/11 14:51:41;;;;;;;2.85;0.80;;;;;;;11.11;66.37;94531.56;2095932;28;20282;-64
2024/02/11 14:52:43;;;;;;;1.55;0.73;;;;;;;11.27;65.52;94541.59;2096304;28;20195;-65
2024/02/11 14:53:45;;;;;;;3.05;0.95;;;;;;;11.43;65.63;94542.00;2096223;28;20200;-65
2024/02/11 14:54:46;;;;;;;3.05;0.90;;;;;;;11.71;64.92;94541.53;2094827;28;20731;-65
2024/02/11 14:55:48;;;;;;;1.30;0.75;;;;;;;10.82;65.32;94542.56;2095812;28;20231;-65
2024/02/11 14:56:49;;;;;;;7.03;0.90;;;;;;;10.69;66.56;94554.91;2096002;28;20256;-64